sensor_id;sensor_type;location;lat;lon;timestamp;P1;durP1;ratioP1;P2;durP2;ratioP2
64060;SDS011;60147;55.036;73.242;2023-05-19T00:00:56;4.60;;;2.10;;
64060;SDS011;60147;55.036;73.242;2023-05-19T00:03:23;7.13;;;2.05;;
64060;SDS011;60147;55.036;73.242;2023-05-19T00:05:50;10.13;;;2.10;;
64060;SDS011;60147;55.036;73.242;2023-05-19T00:08:18;7.32;;;2.15;;
64060;SDS011;60147;55.036;73.242;2023-05-19T00:10:45;6.28;;;2.40;;
64060;SDS011;60147;55.036;73.242;2023-05-19T00:13:11;7.55;;;2.00;;
64060;SDS011;60147;55.036;73.242;2023-05-19T00:15:37;6.47;;;2.40;;
64060;SDS011;60147;55.036;73.242;2023-05-19T00:18:03;4.45;;;2.13;;
64060;SDS011;60147;55.036;73.242;2023-05-19T00:20:29;3.95;;;2.10;;
64060;SDS011;60147;55.036;73.242;2023-05-19T00:22:54;5.50;;;1.95;;
64060;SDS011;60147;55.036;73.242;2023-05-19T00:25:20;4.10;;;1.85;;
64060;SDS011;60147;55.036;73.242;2023-05-19T00:27:46;8.63;;;2.83;;
64060;SDS011;60147;55.036;73.242;2023-05-19T00:30:12;6.28;;;2.38;;
64060;SDS011;60147;55.036;73.242;2023-05-19T00:32:38;7.00;;;2.17;;
64060;SDS011;60147;55.036;73.242;2023-05-19T00:35:04;3.80;;;1.95;;
64060;SDS011;60147;55.036;73.242;2023-05-19T00:37:30;6.25;;;2.33;;
64060;SDS011;60147;55.036;73.242;2023-05-19T00:39:56;3.42;;;1.90;;
64060;SDS011;60147;55.036;73.242;2023-05-19T00:45:09;5.65;;;2.05;;
64060;SDS011;60147;55.036;73.242;2023-05-19T00:47:37;4.95;;;2.42;;
64060;SDS011;60147;55.036;73.242;2023-05-19T00:55:37;7.03;;;2.33;;
64060;SDS011;60147;55.036;73.242;2023-05-19T00:58:05;6.57;;;2.15;;
64060;SDS011;60147;55.036;73.242;2023-05-19T01:00:31;4.07;;;2.45;;
64060;SDS011;60147;55.036;73.242;2023-05-19T01:03:00;7.30;;;2.63;;
64060;SDS011;60147;55.036;73.242;2023-05-19T01:05:27;13.82;;;2.95;;
64060;SDS011;60147;55.036;73.242;2023-05-19T01:07:54;8.27;;;2.95;;
64060;SDS011;60147;55.036;73.242;2023-05-19T01:10:21;4.82;;;2.33;;
64060;SDS011;60147;55.036;73.242;2023-05-19T01:18:20;5.45;;;2.70;;
64060;SDS011;60147;55.036;73.242;2023-05-19T01:20:57;6.07;;;2.47;;
64060;SDS011;60147;55.036;73.242;2023-05-19T01:26:34;6.95;;;2.60;;
64060;SDS011;60147;55.036;73.242;2023-05-19T01:29:07;5.70;;;2.58;;
64060;SDS011;60147;55.036;73.242;2023-05-19T01:34:20;21.50;;;3.25;;
64060;SDS011;60147;55.036;73.242;2023-05-19T01:36:48;9.48;;;2.85;;
64060;SDS011;60147;55.036;73.242;2023-05-19T01:39:15;6.68;;;2.35;;
64060;SDS011;60147;55.036;73.242;2023-05-19T01:41:41;9.57;;;2.90;;
64060;SDS011;60147;55.036;73.242;2023-05-19T01:44:09;5.63;;;2.38;;
64060;SDS011;60147;55.036;73.242;2023-05-19T01:46:35;19.05;;;3.10;;
64060;SDS011;60147;55.036;73.242;2023-05-19T01:49:02;10.18;;;2.85;;
64060;SDS011;60147;55.036;73.242;2023-05-19T01:51:28;6.10;;;2.55;;
64060;SDS011;60147;55.036;73.242;2023-05-19T01:53:54;11.40;;;2.58;;
64060;SDS011;60147;55.036;73.242;2023-05-19T01:56:25;6.95;;;2.40;;
64060;SDS011;60147;55.036;73.242;2023-05-19T02:01:52;12.57;;;2.88;;
64060;SDS011;60147;55.036;73.242;2023-05-19T02:06:55;7.88;;;2.40;;
64060;SDS011;60147;55.036;73.242;2023-05-19T02:09:33;9.75;;;2.33;;
64060;SDS011;60147;55.036;73.242;2023-05-19T02:12:10;11.25;;;2.70;;
64060;SDS011;60147;55.036;73.242;2023-05-19T02:14:44;7.80;;;3.13;;
64060;SDS011;60147;55.036;73.242;2023-05-19T02:19:57;8.40;;;2.55;;
64060;SDS011;60147;55.036;73.242;2023-05-19T02:22:24;6.85;;;2.50;;
64060;SDS011;60147;55.036;73.242;2023-05-19T02:25:09;9.82;;;3.50;;
64060;SDS011;60147;55.036;73.242;2023-05-19T02:27:36;10.48;;;3.25;;
64060;SDS011;60147;55.036;73.242;2023-05-19T02:30:21;13.77;;;4.65;;
64060;SDS011;60147;55.036;73.242;2023-05-19T02:35:32;18.55;;;4.35;;
64060;SDS011;60147;55.036;73.242;2023-05-19T02:37:58;20.08;;;4.70;;
64060;SDS011;60147;55.036;73.242;2023-05-19T02:40:24;24.90;;;5.40;;
64060;SDS011;60147;55.036;73.242;2023-05-19T02:42:50;21.13;;;5.60;;
64060;SDS011;60147;55.036;73.242;2023-05-19T02:45:16;26.23;;;4.43;;
64060;SDS011;60147;55.036;73.242;2023-05-19T02:47:42;32.13;;;5.75;;
64060;SDS011;60147;55.036;73.242;2023-05-19T02:55:57;35.40;;;5.57;;
64060;SDS011;60147;55.036;73.242;2023-05-19T02:58:22;24.75;;;4.55;;
64060;SDS011;60147;55.036;73.242;2023-05-19T03:00:48;18.05;;;4.38;;
64060;SDS011;60147;55.036;73.242;2023-05-19T03:03:15;17.83;;;3.92;;
64060;SDS011;60147;55.036;73.242;2023-05-19T03:05:41;13.00;;;3.97;;
64060;SDS011;60147;55.036;73.242;2023-05-19T03:08:07;13.07;;;3.67;;
64060;SDS011;60147;55.036;73.242;2023-05-19T03:10:34;11.02;;;3.28;;
64060;SDS011;60147;55.036;73.242;2023-05-19T03:13:00;11.93;;;2.95;;
64060;SDS011;60147;55.036;73.242;2023-05-19T03:15:25;12.02;;;2.83;;
64060;SDS011;60147;55.036;73.242;2023-05-19T03:17:51;9.73;;;2.88;;
64060;SDS011;60147;55.036;73.242;2023-05-19T03:20:17;6.35;;;2.70;;
64060;SDS011;60147;55.036;73.242;2023-05-19T03:23:02;11.63;;;2.83;;
64060;SDS011;60147;55.036;73.242;2023-05-19T03:25:28;6.82;;;2.95;;
64060;SDS011;60147;55.036;73.242;2023-05-19T03:27:54;8.52;;;2.35;;
64060;SDS011;60147;55.036;73.242;2023-05-19T03:30:21;10.77;;;2.38;;
64060;SDS011;60147;55.036;73.242;2023-05-19T03:33:05;9.07;;;2.72;;
64060;SDS011;60147;55.036;73.242;2023-05-19T03:35:49;6.60;;;2.70;;
64060;SDS011;60147;55.036;73.242;2023-05-19T03:41:03;5.32;;;1.80;;
64060;SDS011;60147;55.036;73.242;2023-05-19T03:43:30;8.65;;;2.50;;
64060;SDS011;60147;55.036;73.242;2023-05-19T03:48:45;6.70;;;2.30;;
64060;SDS011;60147;55.036;73.242;2023-05-19T03:51:29;14.95;;;2.30;;
64060;SDS011;60147;55.036;73.242;2023-05-19T03:56:58;9.95;;;2.28;;
64060;SDS011;60147;55.036;73.242;2023-05-19T03:59:24;14.73;;;2.38;;
64060;SDS011;60147;55.036;73.242;2023-05-19T04:02:08;5.40;;;2.00;;
64060;SDS011;60147;55.036;73.242;2023-05-19T04:04:34;7.18;;;1.67;;
64060;SDS011;60147;55.036;73.242;2023-05-19T04:07:03;6.85;;;1.70;;
64060;SDS011;60147;55.036;73.242;2023-05-19T04:09:29;5.55;;;1.98;;
64060;SDS011;60147;55.036;73.242;2023-05-19T04:12:14;7.57;;;2.17;;
64060;SDS011;60147;55.036;73.242;2023-05-19T04:14:40;6.75;;;1.77;;
64060;SDS011;60147;55.036;73.242;2023-05-19T04:17:06;12.55;;;2.05;;
64060;SDS011;60147;55.036;73.242;2023-05-19T04:19:32;6.50;;;1.90;;
64060;SDS011;60147;55.036;73.242;2023-05-19T04:22:00;6.78;;;2.13;;
64060;SDS011;60147;55.036;73.242;2023-05-19T04:24:26;5.32;;;1.73;;
64060;SDS011;60147;55.036;73.242;2023-05-19T04:26:52;4.47;;;1.67;;
64060;SDS011;60147;55.036;73.242;2023-05-19T04:29:18;3.75;;;2.28;;
64060;SDS011;60147;55.036;73.242;2023-05-19T04:31:44;7.57;;;1.90;;
64060;SDS011;60147;55.036;73.242;2023-05-19T04:34:10;7.05;;;2.25;;
64060;SDS011;60147;55.036;73.242;2023-05-19T04:36:54;3.45;;;2.00;;
64060;SDS011;60147;55.036;73.242;2023-05-19T04:39:39;4.05;;;1.52;;
64060;SDS011;60147;55.036;73.242;2023-05-19T04:42:11;6.82;;;2.10;;
64060;SDS011;60147;55.036;73.242;2023-05-19T04:44:38;7.13;;;2.08;;
64060;SDS011;60147;55.036;73.242;2023-05-19T04:47:23;5.63;;;2.28;;
64060;SDS011;60147;55.036;73.242;2023-05-19T04:49:53;5.40;;;1.95;;
64060;SDS011;60147;55.036;73.242;2023-05-19T04:52:20;8.65;;;2.10;;
64060;SDS011;60147;55.036;73.242;2023-05-19T04:54:46;6.30;;;2.17;;
64060;SDS011;60147;55.036;73.242;2023-05-19T04:57:12;6.95;;;2.05;;
64060;SDS011;60147;55.036;73.242;2023-05-19T04:59:38;7.85;;;2.00;;
64060;SDS011;60147;55.036;73.242;2023-05-19T05:02:06;5.30;;;1.70;;
64060;SDS011;60147;55.036;73.242;2023-05-19T05:04:34;4.35;;;2.05;;
64060;SDS011;60147;55.036;73.242;2023-05-19T05:07:01;31.35;;;3.03;;
64060;SDS011;60147;55.036;73.242;2023-05-19T05:09:27;7.65;;;1.95;;
64060;SDS011;60147;55.036;73.242;2023-05-19T05:11:55;12.68;;;2.20;;
64060;SDS011;60147;55.036;73.242;2023-05-19T05:14:21;7.43;;;2.28;;
64060;SDS011;60147;55.036;73.242;2023-05-19T05:16:48;7.03;;;1.95;;
64060;SDS011;60147;55.036;73.242;2023-05-19T05:19:19;14.15;;;2.20;;
64060;SDS011;60147;55.036;73.242;2023-05-19T05:21:48;9.30;;;2.00;;
64060;SDS011;60147;55.036;73.242;2023-05-19T05:24:32;9.13;;;1.92;;
64060;SDS011;60147;55.036;73.242;2023-05-19T05:27:00;7.30;;;1.92;;
64060;SDS011;60147;55.036;73.242;2023-05-19T05:32:12;7.30;;;2.30;;
64060;SDS011;60147;55.036;73.242;2023-05-19T05:34:38;8.60;;;2.08;;
64060;SDS011;60147;55.036;73.242;2023-05-19T05:37:05;5.03;;;2.15;;
64060;SDS011;60147;55.036;73.242;2023-05-19T05:39:39;7.45;;;2.03;;
64060;SDS011;60147;55.036;73.242;2023-05-19T05:42:05;3.58;;;2.00;;
64060;SDS011;60147;55.036;73.242;2023-05-19T05:44:34;8.18;;;2.42;;
64060;SDS011;60147;55.036;73.242;2023-05-19T05:47:02;7.65;;;2.33;;
64060;SDS011;60147;55.036;73.242;2023-05-19T05:49:46;4.47;;;2.20;;
64060;SDS011;60147;55.036;73.242;2023-05-19T05:52:14;6.72;;;2.05;;
64060;SDS011;60147;55.036;73.242;2023-05-19T05:54:45;8.85;;;2.35;;
64060;SDS011;60147;55.036;73.242;2023-05-19T06:00:00;10.00;;;2.60;;
64060;SDS011;60147;55.036;73.242;2023-05-19T06:05:12;8.25;;;2.17;;
64060;SDS011;60147;55.036;73.242;2023-05-19T06:07:40;5.80;;;1.85;;
64060;SDS011;60147;55.036;73.242;2023-05-19T06:10:07;5.30;;;2.00;;
64060;SDS011;60147;55.036;73.242;2023-05-19T06:12:53;7.15;;;1.95;;
64060;SDS011;60147;55.036;73.242;2023-05-19T06:15:20;6.97;;;1.95;;
64060;SDS011;60147;55.036;73.242;2023-05-19T06:17:46;6.10;;;2.42;;
64060;SDS011;60147;55.036;73.242;2023-05-19T06:20:12;7.35;;;2.30;;
64060;SDS011;60147;55.036;73.242;2023-05-19T06:22:38;6.20;;;1.92;;
64060;SDS011;60147;55.036;73.242;2023-05-19T06:25:05;6.63;;;2.47;;
64060;SDS011;60147;55.036;73.242;2023-05-19T06:27:32;5.53;;;2.10;;
64060;SDS011;60147;55.036;73.242;2023-05-19T06:33:20;7.72;;;2.00;;
64060;SDS011;60147;55.036;73.242;2023-05-19T06:35:46;7.20;;;1.95;;
64060;SDS011;60147;55.036;73.242;2023-05-19T06:38:13;6.88;;;2.00;;
64060;SDS011;60147;55.036;73.242;2023-05-19T06:43:25;12.20;;;2.15;;
64060;SDS011;60147;55.036;73.242;2023-05-19T06:46:12;8.13;;;2.55;;
64060;SDS011;60147;55.036;73.242;2023-05-19T06:48:39;8.05;;;2.13;;
64060;SDS011;60147;55.036;73.242;2023-05-19T06:51:09;9.32;;;2.38;;
64060;SDS011;60147;55.036;73.242;2023-05-19T06:53:37;8.90;;;2.38;;
64060;SDS011;60147;55.036;73.242;2023-05-19T06:56:07;9.23;;;2.15;;
64060;SDS011;60147;55.036;73.242;2023-05-19T06:58:36;9.80;;;2.35;;
64060;SDS011;60147;55.036;73.242;2023-05-19T07:01:06;8.57;;;2.35;;
64060;SDS011;60147;55.036;73.242;2023-05-19T07:03:42;8.77;;;2.80;;
64060;SDS011;60147;55.036;73.242;2023-05-19T07:06:09;12.88;;;2.28;;
64060;SDS011;60147;55.036;73.242;2023-05-19T07:08:38;6.82;;;2.40;;
64060;SDS011;60147;55.036;73.242;2023-05-19T07:11:06;12.52;;;2.63;;
64060;SDS011;60147;55.036;73.242;2023-05-19T07:16:35;12.65;;;3.42;;
64060;SDS011;60147;55.036;73.242;2023-05-19T07:19:02;4.88;;;2.30;;
64060;SDS011;60147;55.036;73.242;2023-05-19T07:21:27;7.97;;;2.30;;
64060;SDS011;60147;55.036;73.242;2023-05-19T07:23:53;9.95;;;2.40;;
64060;SDS011;60147;55.036;73.242;2023-05-19T07:26:38;8.52;;;2.30;;
64060;SDS011;60147;55.036;73.242;2023-05-19T07:29:23;14.20;;;2.88;;
64060;SDS011;60147;55.036;73.242;2023-05-19T07:32:07;7.82;;;2.47;;
64060;SDS011;60147;55.036;73.242;2023-05-19T07:37:37;5.72;;;2.00;;
64060;SDS011;60147;55.036;73.242;2023-05-19T07:40:03;7.13;;;2.20;;
64060;SDS011;60147;55.036;73.242;2023-05-19T07:42:31;4.57;;;2.20;;
64060;SDS011;60147;55.036;73.242;2023-05-19T07:44:57;3.20;;;1.90;;
64060;SDS011;60147;55.036;73.242;2023-05-19T07:47:41;6.50;;;2.30;;
64060;SDS011;60147;55.036;73.242;2023-05-19T07:50:10;7.05;;;2.30;;
64060;SDS011;60147;55.036;73.242;2023-05-19T07:52:36;4.18;;;2.03;;
64060;SDS011;60147;55.036;73.242;2023-05-19T07:55:21;11.45;;;2.38;;
64060;SDS011;60147;55.036;73.242;2023-05-19T07:57:48;11.15;;;2.10;;
64060;SDS011;60147;55.036;73.242;2023-05-19T08:00:32;6.10;;;2.25;;
64060;SDS011;60147;55.036;73.242;2023-05-19T08:02:58;11.98;;;2.40;;
64060;SDS011;60147;55.036;73.242;2023-05-19T08:08:10;4.90;;;2.28;;
64060;SDS011;60147;55.036;73.242;2023-05-19T08:10:36;6.50;;;1.92;;
64060;SDS011;60147;55.036;73.242;2023-05-19T08:13:02;5.45;;;2.20;;
64060;SDS011;60147;55.036;73.242;2023-05-19T08:15:28;5.22;;;2.03;;
64060;SDS011;60147;55.036;73.242;2023-05-19T08:17:54;6.28;;;2.22;;
64060;SDS011;60147;55.036;73.242;2023-05-19T08:20:38;7.07;;;2.13;;
64060;SDS011;60147;55.036;73.242;2023-05-19T08:23:23;11.88;;;1.80;;
64060;SDS011;60147;55.036;73.242;2023-05-19T08:25:48;7.28;;;1.90;;
64060;SDS011;60147;55.036;73.242;2023-05-19T08:28:14;7.80;;;2.42;;
64060;SDS011;60147;55.036;73.242;2023-05-19T08:30:40;9.68;;;2.38;;
64060;SDS011;60147;55.036;73.242;2023-05-19T08:33:06;5.72;;;2.38;;
64060;SDS011;60147;55.036;73.242;2023-05-19T08:35:32;5.90;;;1.90;;
64060;SDS011;60147;55.036;73.242;2023-05-19T08:37:58;10.45;;;2.22;;
64060;SDS011;60147;55.036;73.242;2023-05-19T08:40:24;10.77;;;2.30;;
64060;SDS011;60147;55.036;73.242;2023-05-19T08:45:58;5.13;;;2.10;;
64060;SDS011;60147;55.036;73.242;2023-05-19T08:48:24;32.60;;;3.95;;
64060;SDS011;60147;55.036;73.242;2023-05-19T08:54:14;8.07;;;2.08;;
64060;SDS011;60147;55.036;73.242;2023-05-19T08:57:17;12.00;;;2.10;;
64060;SDS011;60147;55.036;73.242;2023-05-19T09:02:32;11.88;;;2.17;;
64060;SDS011;60147;55.036;73.242;2023-05-19T09:04:58;9.05;;;1.98;;
64060;SDS011;60147;55.036;73.242;2023-05-19T09:08:01;6.85;;;1.98;;
64060;SDS011;60147;55.036;73.242;2023-05-19T09:10:47;4.47;;;2.10;;
64060;SDS011;60147;55.036;73.242;2023-05-19T09:16:16;11.05;;;2.03;;
64060;SDS011;60147;55.036;73.242;2023-05-19T09:18:56;5.15;;;1.90;;
64060;SDS011;60147;55.036;73.242;2023-05-19T09:24:08;4.35;;;1.92;;
64060;SDS011;60147;55.036;73.242;2023-05-19T09:26:37;8.48;;;1.80;;
64060;SDS011;60147;55.036;73.242;2023-05-19T09:29:23;8.07;;;1.90;;
64060;SDS011;60147;55.036;73.242;2023-05-19T09:31:51;14.18;;;2.10;;
64060;SDS011;60147;55.036;73.242;2023-05-19T09:34:38;7.82;;;2.38;;
64060;SDS011;60147;55.036;73.242;2023-05-19T09:40:27;3.63;;;1.60;;
64060;SDS011;60147;55.036;73.242;2023-05-19T09:42:54;4.45;;;1.73;;
64060;SDS011;60147;55.036;73.242;2023-05-19T09:45:39;3.72;;;1.80;;
64060;SDS011;60147;55.036;73.242;2023-05-19T09:48:05;5.32;;;2.00;;
64060;SDS011;60147;55.036;73.242;2023-05-19T09:50:31;5.60;;;2.33;;
64060;SDS011;60147;55.036;73.242;2023-05-19T09:52:58;13.10;;;2.65;;
64060;SDS011;60147;55.036;73.242;2023-05-19T09:55:24;7.63;;;1.95;;
64060;SDS011;60147;55.036;73.242;2023-05-19T09:57:51;8.05;;;2.10;;
64060;SDS011;60147;55.036;73.242;2023-05-19T10:00:19;8.15;;;2.25;;
64060;SDS011;60147;55.036;73.242;2023-05-19T10:02:51;14.48;;;2.20;;
64060;SDS011;60147;55.036;73.242;2023-05-19T10:05:17;7.10;;;2.13;;
64060;SDS011;60147;55.036;73.242;2023-05-19T10:08:02;4.88;;;1.77;;
64060;SDS011;60147;55.036;73.242;2023-05-19T10:10:31;5.57;;;1.77;;
64060;SDS011;60147;55.036;73.242;2023-05-19T10:13:16;7.18;;;2.00;;
64060;SDS011;60147;55.036;73.242;2023-05-19T10:15:42;5.90;;;2.00;;
64060;SDS011;60147;55.036;73.242;2023-05-19T10:18:28;10.05;;;2.67;;
64060;SDS011;60147;55.036;73.242;2023-05-19T10:20:55;6.32;;;2.20;;
64060;SDS011;60147;55.036;73.242;2023-05-19T10:23:22;5.55;;;1.73;;
64060;SDS011;60147;55.036;73.242;2023-05-19T10:25:49;10.30;;;2.10;;
64060;SDS011;60147;55.036;73.242;2023-05-19T10:28:16;4.57;;;1.85;;
64060;SDS011;60147;55.036;73.242;2023-05-19T10:33:36;32.05;;;3.65;;
64060;SDS011;60147;55.036;73.242;2023-05-19T10:39:06;2.77;;;1.70;;
64060;SDS011;60147;55.036;73.242;2023-05-19T10:41:45;7.30;;;1.95;;
64060;SDS011;60147;55.036;73.242;2023-05-19T10:44:33;7.30;;;1.90;;
64060;SDS011;60147;55.036;73.242;2023-05-19T10:47:04;6.65;;;2.00;;
64060;SDS011;60147;55.036;73.242;2023-05-19T10:49:33;3.20;;;1.95;;
64060;SDS011;60147;55.036;73.242;2023-05-19T10:51:59;12.40;;;2.50;;
64060;SDS011;60147;55.036;73.242;2023-05-19T10:54:38;8.48;;;2.00;;
64060;SDS011;60147;55.036;73.242;2023-05-19T10:57:05;11.15;;;2.00;;
64060;SDS011;60147;55.036;73.242;2023-05-19T10:59:33;8.85;;;2.40;;
64060;SDS011;60147;55.036;73.242;2023-05-19T11:02:03;6.25;;;2.00;;
64060;SDS011;60147;55.036;73.242;2023-05-19T11:04:39;9.82;;;2.25;;
64060;SDS011;60147;55.036;73.242;2023-05-19T11:07:13;5.90;;;1.92;;
64060;SDS011;60147;55.036;73.242;2023-05-19T11:09:58;9.77;;;1.80;;
64060;SDS011;60147;55.036;73.242;2023-05-19T11:12:24;7.30;;;2.00;;
64060;SDS011;60147;55.036;73.242;2023-05-19T11:14:53;3.90;;;1.95;;
64060;SDS011;60147;55.036;73.242;2023-05-19T11:17:19;10.37;;;2.33;;
64060;SDS011;60147;55.036;73.242;2023-05-19T11:22:15;12.40;;;2.70;;
64060;SDS011;60147;55.036;73.242;2023-05-19T11:24:47;9.95;;;2.50;;
64060;SDS011;60147;55.036;73.242;2023-05-19T11:27:18;8.27;;;2.40;;
64060;SDS011;60147;55.036;73.242;2023-05-19T11:29:46;5.15;;;2.92;;
64060;SDS011;60147;55.036;73.242;2023-05-19T11:32:20;5.10;;;2.22;;
64060;SDS011;60147;55.036;73.242;2023-05-19T11:34:46;5.82;;;2.35;;
64060;SDS011;60147;55.036;73.242;2023-05-19T11:37:12;18.40;;;3.05;;
64060;SDS011;60147;55.036;73.242;2023-05-19T11:40:13;10.38;;;4.35;;
64060;SDS011;60147;55.036;73.242;2023-05-19T11:45:30;14.00;;;3.40;;
64060;SDS011;60147;55.036;73.242;2023-05-19T11:47:56;15.77;;;5.57;;
64060;SDS011;60147;55.036;73.242;2023-05-19T11:50:23;18.73;;;3.00;;
64060;SDS011;60147;55.036;73.242;2023-05-19T11:53:10;34.00;;;16.05;;
64060;SDS011;60147;55.036;73.242;2023-05-19T11:55:40;40.13;;;12.05;;
64060;SDS011;60147;55.036;73.242;2023-05-19T11:58:06;15.15;;;4.95;;
64060;SDS011;60147;55.036;73.242;2023-05-19T12:00:36;11.48;;;4.55;;
64060;SDS011;60147;55.036;73.242;2023-05-19T12:03:04;12.50;;;4.90;;
64060;SDS011;60147;55.036;73.242;2023-05-19T12:05:48;9.13;;;4.43;;
64060;SDS011;60147;55.036;73.242;2023-05-19T12:08:15;7.65;;;2.97;;
64060;SDS011;60147;55.036;73.242;2023-05-19T12:10:42;12.60;;;3.92;;
64060;SDS011;60147;55.036;73.242;2023-05-19T12:13:08;10.55;;;4.35;;
64060;SDS011;60147;55.036;73.242;2023-05-19T12:16:03;13.80;;;3.63;;
64060;SDS011;60147;55.036;73.242;2023-05-19T12:18:29;7.93;;;3.60;;
64060;SDS011;60147;55.036;73.242;2023-05-19T12:20:58;17.38;;;5.07;;
64060;SDS011;60147;55.036;73.242;2023-05-19T12:26:08;14.95;;;4.55;;
64060;SDS011;60147;55.036;73.242;2023-05-19T12:28:34;10.10;;;5.70;;
64060;SDS011;60147;55.036;73.242;2023-05-19T12:31:01;15.38;;;7.38;;
64060;SDS011;60147;55.036;73.242;2023-05-19T12:36:11;12.60;;;5.13;;
64060;SDS011;60147;55.036;73.242;2023-05-19T12:38:38;7.57;;;4.13;;
64060;SDS011;60147;55.036;73.242;2023-05-19T12:41:04;7.43;;;3.22;;
64060;SDS011;60147;55.036;73.242;2023-05-19T12:43:49;15.65;;;4.30;;
64060;SDS011;60147;55.036;73.242;2023-05-19T12:46:17;12.88;;;5.70;;
64060;SDS011;60147;55.036;73.242;2023-05-19T12:54:12;9.18;;;2.90;;
64060;SDS011;60147;55.036;73.242;2023-05-19T12:56:38;8.52;;;3.00;;
64060;SDS011;60147;55.036;73.242;2023-05-19T12:59:19;6.95;;;2.97;;
64060;SDS011;60147;55.036;73.242;2023-05-19T13:02:04;8.30;;;3.17;;
64060;SDS011;60147;55.036;73.242;2023-05-19T13:04:30;13.30;;;3.45;;
64060;SDS011;60147;55.036;73.242;2023-05-19T13:06:56;18.75;;;3.85;;
64060;SDS011;60147;55.036;73.242;2023-05-19T13:09:22;9.30;;;2.92;;
64060;SDS011;60147;55.036;73.242;2023-05-19T13:11:48;5.55;;;2.85;;
64060;SDS011;60147;55.036;73.242;2023-05-19T13:14:32;5.38;;;2.97;;
64060;SDS011;60147;55.036;73.242;2023-05-19T13:16:58;10.25;;;3.50;;
64060;SDS011;60147;55.036;73.242;2023-05-19T13:19:24;7.43;;;3.00;;
64060;SDS011;60147;55.036;73.242;2023-05-19T13:21:50;6.97;;;3.00;;
64060;SDS011;60147;55.036;73.242;2023-05-19T13:29:50;6.95;;;3.10;;
64060;SDS011;60147;55.036;73.242;2023-05-19T13:32:16;20.38;;;3.20;;
64060;SDS011;60147;55.036;73.242;2023-05-19T13:34:42;7.75;;;3.00;;
64060;SDS011;60147;55.036;73.242;2023-05-19T13:37:08;13.68;;;3.20;;
64060;SDS011;60147;55.036;73.242;2023-05-19T13:39:36;12.57;;;3.45;;
64060;SDS011;60147;55.036;73.242;2023-05-19T13:42:02;10.38;;;2.70;;
64060;SDS011;60147;55.036;73.242;2023-05-19T13:44:29;7.18;;;3.10;;
64060;SDS011;60147;55.036;73.242;2023-05-19T13:46:55;11.63;;;3.28;;
64060;SDS011;60147;55.036;73.242;2023-05-19T13:49:40;8.23;;;2.80;;
64060;SDS011;60147;55.036;73.242;2023-05-19T13:52:06;9.98;;;3.10;;
64060;SDS011;60147;55.036;73.242;2023-05-19T13:54:32;15.05;;;3.13;;
64060;SDS011;60147;55.036;73.242;2023-05-19T13:56:58;14.30;;;3.58;;
64060;SDS011;60147;55.036;73.242;2023-05-19T13:59:43;15.75;;;4.70;;
64060;SDS011;60147;55.036;73.242;2023-05-19T14:04:54;6.82;;;3.40;;
64060;SDS011;60147;55.036;73.242;2023-05-19T14:10:06;13.02;;;3.75;;
64060;SDS011;60147;55.036;73.242;2023-05-19T14:12:32;7.80;;;2.80;;
64060;SDS011;60147;55.036;73.242;2023-05-19T14:17:45;21.98;;;3.75;;
64060;SDS011;60147;55.036;73.242;2023-05-19T14:20:11;10.00;;;3.72;;
64060;SDS011;60147;55.036;73.242;2023-05-19T14:22:37;8.25;;;3.65;;
64060;SDS011;60147;55.036;73.242;2023-05-19T14:25:23;10.93;;;4.28;;
64060;SDS011;60147;55.036;73.242;2023-05-19T14:28:07;18.17;;;4.40;;
64060;SDS011;60147;55.036;73.242;2023-05-19T14:30:35;11.57;;;5.57;;
64060;SDS011;60147;55.036;73.242;2023-05-19T14:33:01;10.50;;;4.18;;
64060;SDS011;60147;55.036;73.242;2023-05-19T14:35:27;14.23;;;5.00;;
64060;SDS011;60147;55.036;73.242;2023-05-19T14:37:53;15.48;;;4.00;;
64060;SDS011;60147;55.036;73.242;2023-05-19T14:40:19;10.68;;;4.13;;
64060;SDS011;60147;55.036;73.242;2023-05-19T14:43:06;17.45;;;6.53;;
64060;SDS011;60147;55.036;73.242;2023-05-19T14:45:32;17.58;;;7.53;;
64060;SDS011;60147;55.036;73.242;2023-05-19T14:47:58;18.27;;;7.15;;
64060;SDS011;60147;55.036;73.242;2023-05-19T14:50:24;21.00;;;9.10;;
64060;SDS011;60147;55.036;73.242;2023-05-19T14:55:35;30.45;;;12.77;;
64060;SDS011;60147;55.036;73.242;2023-05-19T14:58:01;24.77;;;12.48;;
64060;SDS011;60147;55.036;73.242;2023-05-19T15:00:46;26.38;;;11.32;;
64060;SDS011;60147;55.036;73.242;2023-05-19T15:03:12;15.48;;;5.63;;
64060;SDS011;60147;55.036;73.242;2023-05-19T15:05:38;19.13;;;7.68;;
64060;SDS011;60147;55.036;73.242;2023-05-19T15:08:05;14.75;;;6.65;;
64060;SDS011;60147;55.036;73.242;2023-05-19T15:10:33;17.85;;;7.70;;
64060;SDS011;60147;55.036;73.242;2023-05-19T15:15:45;20.13;;;7.13;;
64060;SDS011;60147;55.036;73.242;2023-05-19T15:18:11;25.40;;;7.28;;
64060;SDS011;60147;55.036;73.242;2023-05-19T15:20:40;20.30;;;8.07;;
64060;SDS011;60147;55.036;73.242;2023-05-19T15:23:08;24.75;;;8.73;;
64060;SDS011;60147;55.036;73.242;2023-05-19T15:25:34;88.18;;;10.27;;
64060;SDS011;60147;55.036;73.242;2023-05-19T15:28:00;35.45;;;7.63;;
64060;SDS011;60147;55.036;73.242;2023-05-19T15:30:26;19.85;;;6.30;;
64060;SDS011;60147;55.036;73.242;2023-05-19T15:32:53;23.67;;;5.95;;
64060;SDS011;60147;55.036;73.242;2023-05-19T15:35:37;39.22;;;6.20;;
64060;SDS011;60147;55.036;73.242;2023-05-19T15:38:22;26.38;;;5.15;;
64060;SDS011;60147;55.036;73.242;2023-05-19T15:41:06;21.52;;;5.20;;
64060;SDS011;60147;55.036;73.242;2023-05-19T15:43:34;15.30;;;5.28;;
64060;SDS011;60147;55.036;73.242;2023-05-19T15:46:18;14.88;;;5.13;;
64060;SDS011;60147;55.036;73.242;2023-05-19T15:48:44;14.82;;;5.60;;
64060;SDS011;60147;55.036;73.242;2023-05-19T15:51:10;12.05;;;5.40;;
64060;SDS011;60147;55.036;73.242;2023-05-19T15:53:36;14.43;;;5.60;;
64060;SDS011;60147;55.036;73.242;2023-05-19T15:56:20;15.27;;;5.68;;
64060;SDS011;60147;55.036;73.242;2023-05-19T15:58:47;16.05;;;6.50;;
64060;SDS011;60147;55.036;73.242;2023-05-19T16:01:13;17.05;;;6.18;;
64060;SDS011;60147;55.036;73.242;2023-05-19T16:03:39;14.65;;;5.15;;
64060;SDS011;60147;55.036;73.242;2023-05-19T16:06:24;14.02;;;5.53;;
64060;SDS011;60147;55.036;73.242;2023-05-19T16:11:55;12.70;;;4.90;;
64060;SDS011;60147;55.036;73.242;2023-05-19T16:14:22;11.95;;;4.22;;
64060;SDS011;60147;55.036;73.242;2023-05-19T16:16:48;18.02;;;5.90;;
64060;SDS011;60147;55.036;73.242;2023-05-19T16:19:33;13.90;;;5.85;;
64060;SDS011;60147;55.036;73.242;2023-05-19T16:21:59;18.65;;;5.88;;
64060;SDS011;60147;55.036;73.242;2023-05-19T16:24:25;12.18;;;5.43;;
64060;SDS011;60147;55.036;73.242;2023-05-19T16:26:51;16.10;;;6.05;;
64060;SDS011;60147;55.036;73.242;2023-05-19T16:29:35;15.88;;;5.78;;
64060;SDS011;60147;55.036;73.242;2023-05-19T16:32:01;17.67;;;6.10;;
64060;SDS011;60147;55.036;73.242;2023-05-19T16:34:27;14.15;;;7.40;;
64060;SDS011;60147;55.036;73.242;2023-05-19T16:36:53;18.60;;;6.45;;
64060;SDS011;60147;55.036;73.242;2023-05-19T16:39:19;19.58;;;6.32;;
64060;SDS011;60147;55.036;73.242;2023-05-19T16:41:45;18.48;;;7.18;;
64060;SDS011;60147;55.036;73.242;2023-05-19T16:44:33;20.52;;;9.50;;
64060;SDS011;60147;55.036;73.242;2023-05-19T16:50:03;17.65;;;10.75;;
64060;SDS011;60147;55.036;73.242;2023-05-19T16:52:29;10.68;;;6.90;;
64060;SDS011;60147;55.036;73.242;2023-05-19T16:54:58;14.88;;;5.55;;
64060;SDS011;60147;55.036;73.242;2023-05-19T16:57:24;11.90;;;5.25;;
64060;SDS011;60147;55.036;73.242;2023-05-19T16:59:52;12.02;;;5.50;;